createdAt,value
2023-03-21T00:01:31.929Z,10.10
2023-03-21T00:03:58.822Z,10.10
2023-03-21T00:06:25.587Z,10.10
2023-03-21T00:08:52.259Z,10.10
2023-03-21T00:11:18.991Z,10.10
2023-03-21T00:13:45.773Z,10.20
2023-03-21T00:16:17.706Z,10.20
2023-03-21T00:18:54.690Z,10.20
2023-03-21T00:24:15.150Z,10.10
2023-03-21T00:26:41.897Z,10.10
2023-03-21T00:29:10.780Z,10.10
2023-03-21T00:31:37.445Z,10.00
2023-03-21T00:34:04.390Z,10.00
2023-03-21T00:36:33.528Z,9.80
2023-03-21T00:39:00.741Z,9.80
2023-03-21T00:41:41.597Z,9.70
2023-03-21T00:44:09.833Z,9.70
2023-03-21T00:46:45.554Z,9.70
2023-03-21T00:49:16.054Z,9.60
2023-03-21T00:51:43.574Z,9.60
2023-03-21T00:54:14.466Z,9.60
2023-03-21T00:56:43.360Z,9.60
2023-03-21T00:59:12.150Z,9.50
2023-03-21T01:01:41.087Z,9.60
2023-03-21T01:04:14.409Z,9.60
2023-03-21T01:06:43.126Z,9.60
2023-03-21T01:09:16.556Z,9.60
2023-03-21T01:11:44.059Z,9.50
2023-03-21T01:14:22.027Z,9.60
2023-03-21T01:16:53.127Z,9.50
2023-03-21T01:19:27.520Z,9.50
2023-03-21T01:21:59.369Z,9.50
2023-03-21T01:24:26.109Z,9.40
2023-03-21T01:26:54.948Z,9.40
2023-03-21T01:29:23.809Z,9.30
2023-03-21T01:31:50.561Z,9.30
2023-03-21T01:34:19.800Z,9.20
2023-03-21T01:36:46.562Z,9.10
2023-03-21T01:39:15.501Z,9.00
2023-03-21T01:41:44.587Z,8.90
2023-03-21T01:44:19.358Z,8.80
2023-03-21T01:47:03.948Z,8.70
2023-03-21T01:49:39.803Z,8.70
2023-03-21T01:52:17.048Z,8.60
2023-03-21T01:54:48.414Z,8.50
2023-03-21T01:57:25.827Z,8.40
2023-03-21T01:59:54.714Z,8.30
2023-03-21T02:02:27.002Z,8.20
2023-03-21T02:04:58.116Z,8.10
2023-03-21T02:07:41.749Z,8.00
2023-03-21T02:10:11.383Z,8.00
2023-03-21T02:12:38.555Z,7.90
2023-03-21T02:15:07.450Z,7.90
2023-03-21T02:17:52.312Z,7.80
2023-03-21T02:20:54.925Z,7.80
2023-03-21T02:23:33.586Z,7.80
2023-03-21T02:26:42.419Z,7.80
2023-03-21T02:29:21.795Z,7.80
2023-03-21T02:32:00.905Z,7.70
2023-03-21T02:34:58.782Z,7.60
2023-03-21T02:37:38.445Z,7.60
2023-03-21T02:40:15.350Z,7.50
2023-03-21T02:43:04.322Z,7.50
2023-03-21T02:46:00.935Z,7.40
2023-03-21T02:48:49.733Z,7.40
2023-03-21T02:51:21.481Z,7.30
2023-03-21T02:54:23.748Z,7.20
2023-03-21T02:56:46.884Z,7.10
2023-03-21T02:59:16.171Z,7.10
2023-03-21T03:01:45.063Z,7.00
2023-03-21T03:04:19.819Z,7.00
2023-03-21T03:07:12.937Z,6.90
2023-03-21T03:10:05.614Z,6.90
2023-03-21T03:12:46.153Z,6.90
2023-03-21T03:15:38.520Z,6.90
2023-03-21T03:18:30.697Z,6.80
2023-03-21T03:21:30.514Z,6.90
2023-03-21T03:24:06.410Z,6.80
2023-03-21T03:26:59.139Z,6.80
2023-03-21T03:29:28.618Z,6.80
2023-03-21T03:32:05.438Z,6.80
2023-03-21T03:34:49.555Z,6.80
2023-03-21T03:37:18.250Z,6.80
2023-03-21T03:40:14.131Z,6.80
2023-03-21T03:42:54.546Z,6.80
2023-03-21T03:45:28.399Z,6.70
2023-03-21T03:48:02.389Z,6.70
2023-03-21T03:50:34.450Z,6.80
2023-03-21T03:53:18.326Z,6.80
2023-03-21T03:55:46.556Z,6.80
2023-03-21T03:58:22.755Z,6.80
2023-03-21T04:00:52.151Z,6.70
2023-03-21T04:03:19.011Z,6.70
2023-03-21T04:05:48.774Z,6.60
2023-03-21T04:08:17.237Z,6.60
2023-03-21T04:10:44.220Z,6.60
2023-03-21T04:13:11.479Z,6.50
2023-03-21T04:15:38.196Z,6.50
2023-03-21T04:18:06.001Z,6.50
2023-03-21T04:20:37.297Z,6.50
2023-03-21T04:23:04.876Z,6.50
2023-03-21T04:25:38.641Z,6.50
2023-03-21T04:28:07.165Z,6.40
2023-03-21T04:30:34.259Z,6.50
2023-03-21T04:33:01.197Z,6.60
2023-03-21T04:35:35.870Z,6.50
2023-03-21T04:38:03.758Z,6.50
2023-03-21T04:40:30.505Z,6.50
2023-03-21T04:42:57.145Z,6.50
2023-03-21T04:45:23.824Z,6.40
2023-03-21T04:47:53.022Z,6.50
2023-03-21T04:50:19.797Z,6.50
2023-03-21T04:52:46.510Z,6.50
2023-03-21T04:55:14.595Z,6.60
2023-03-21T04:57:41.341Z,6.70
2023-03-21T05:00:10.512Z,6.60
2023-03-21T05:02:41.081Z,6.70
2023-03-21T05:05:11.167Z,6.60
2023-03-21T05:07:39.582Z,6.60
2023-03-21T05:10:08.665Z,6.60
2023-03-21T05:12:35.338Z,6.70
2023-03-21T05:15:02.006Z,6.70
2023-03-21T05:17:29.504Z,6.70
2023-03-21T05:20:00.982Z,6.70
2023-03-21T05:22:28.953Z,6.70
2023-03-21T05:24:56.091Z,6.70
2023-03-21T05:27:35.949Z,6.70
2023-03-21T05:30:05.669Z,6.70
2023-03-21T05:32:32.553Z,6.60
2023-03-21T05:34:59.245Z,6.60
2023-03-21T05:37:28.670Z,6.60
2023-03-21T05:39:55.625Z,6.60
2023-03-21T05:42:24.791Z,6.60
2023-03-21T05:44:51.681Z,6.60
2023-03-21T05:47:18.902Z,6.60
2023-03-21T05:49:47.069Z,6.60
2023-03-21T05:52:13.962Z,6.60
2023-03-21T05:54:42.860Z,6.60
2023-03-21T05:57:09.586Z,6.70
2023-03-21T05:59:38.856Z,6.70
2023-03-21T06:02:07.877Z,6.70
2023-03-21T06:04:36.728Z,6.70
2023-03-21T06:07:04.014Z,6.80
2023-03-21T06:09:30.967Z,6.80
2023-03-21T06:12:00.416Z,6.80
2023-03-21T06:14:27.145Z,6.80
2023-03-21T06:16:56.995Z,6.90
2023-03-21T06:19:26.160Z,7.00
2023-03-21T06:21:52.817Z,7.10
2023-03-21T06:24:19.781Z,7.10
2023-03-21T06:26:48.841Z,7.20
2023-03-21T06:29:15.831Z,7.30
2023-03-21T06:31:44.723Z,7.30
2023-03-21T06:34:11.667Z,7.40
2023-03-21T06:36:38.444Z,7.40
2023-03-21T06:39:07.424Z,7.50
2023-03-21T06:41:34.096Z,7.50
2023-03-21T06:44:00.886Z,7.60
2023-03-21T06:46:27.651Z,7.60
2023-03-21T06:48:56.823Z,7.70
2023-03-21T06:51:23.724Z,7.70
2023-03-21T06:53:50.528Z,7.80
2023-03-21T06:56:19.851Z,7.80
2023-03-21T06:58:46.694Z,7.90
2023-03-21T07:01:14.671Z,8.00
2023-03-21T07:03:41.546Z,8.00
2023-03-21T07:06:11.949Z,8.10
2023-03-21T07:08:41.730Z,8.10
2023-03-21T07:11:09.626Z,8.20
2023-03-21T07:13:36.500Z,8.30
2023-03-21T07:16:03.275Z,8.50
2023-03-21T07:18:31.069Z,8.60
2023-03-21T07:20:58.113Z,8.80
2023-03-21T07:23:26.541Z,8.90
2023-03-21T07:25:54.147Z,9.00
2023-03-21T07:28:21.715Z,9.10
2023-03-21T07:30:57.493Z,9.30
2023-03-21T07:33:25.055Z,9.30
2023-03-21T07:35:53.632Z,9.40
2023-03-21T07:38:23.987Z,9.60
2023-03-21T07:40:53.424Z,9.70
2023-03-21T07:43:20.397Z,9.80
2023-03-21T07:45:47.270Z,9.90
2023-03-21T07:48:14.624Z,9.90
2023-03-21T07:50:41.448Z,10.00
2023-03-21T07:53:10.421Z,10.10
2023-03-21T07:55:37.323Z,10.10
2023-03-21T07:58:07.146Z,10.10
2023-03-21T08:00:33.931Z,10.10
2023-03-21T08:03:01.519Z,10.10
2023-03-21T08:05:33.111Z,10.20
2023-03-21T08:08:00.585Z,10.20
2023-03-21T08:10:30.265Z,10.20
2023-03-21T08:12:57.200Z,10.20
2023-03-21T08:15:24.283Z,10.20
2023-03-21T08:17:51.083Z,10.30
2023-03-21T08:20:22.211Z,10.40
2023-03-21T08:22:49.867Z,10.40
2023-03-21T08:25:18.382Z,10.50
2023-03-21T08:27:45.899Z,10.50
2023-03-21T08:30:15.693Z,10.60
2023-03-21T08:32:45.297Z,10.70
2023-03-21T08:35:15.972Z,10.70
2023-03-21T08:37:43.743Z,10.80
2023-03-21T08:40:15.697Z,10.80
2023-03-21T08:42:43.698Z,10.90
2023-03-21T08:45:11.651Z,10.90
2023-03-21T08:47:38.717Z,11.00
2023-03-21T08:50:08.956Z,11.10
2023-03-21T08:52:35.686Z,11.10
2023-03-21T08:55:02.698Z,11.20
2023-03-21T08:57:30.282Z,11.30
2023-03-21T08:59:57.049Z,11.30
2023-03-21T09:02:23.742Z,11.30
2023-03-21T09:04:58.863Z,11.50
2023-03-21T09:07:26.188Z,11.50
2023-03-21T09:10:08.101Z,11.50
2023-03-21T09:12:41.099Z,11.60
2023-03-21T09:15:10.113Z,11.70
2023-03-21T09:17:36.771Z,11.70
2023-03-21T09:20:11.293Z,11.60
2023-03-21T09:22:40.781Z,11.70
2023-03-21T09:25:14.108Z,11.70
2023-03-21T09:27:43.428Z,11.80
2023-03-21T09:30:16.977Z,11.90
2023-03-21T09:32:47.249Z,11.90
2023-03-21T09:35:16.057Z,12.00
2023-03-21T09:37:42.933Z,12.00
2023-03-21T09:40:19.427Z,12.10
2023-03-21T09:43:10.186Z,12.20
2023-03-21T09:45:44.670Z,12.20
2023-03-21T09:48:30.218Z,12.20
2023-03-21T09:50:58.140Z,12.20
2023-03-21T09:53:35.738Z,12.30
2023-03-21T09:56:03.679Z,12.30
2023-03-21T09:58:40.432Z,12.30
2023-03-21T10:01:45.522Z,12.30
2023-03-21T10:04:17.750Z,12.30
2023-03-21T10:06:48.199Z,12.20
2023-03-21T10:09:22.870Z,12.20
2023-03-21T10:11:54.975Z,12.30
2023-03-21T10:14:23.397Z,12.30
2023-03-21T10:16:56.872Z,12.40
2023-03-21T10:19:24.367Z,12.50
2023-03-21T10:22:00.869Z,12.60
2023-03-21T10:24:31.870Z,12.60
2023-03-21T10:26:59.233Z,12.60
2023-03-21T10:29:43.270Z,12.70
2023-03-21T10:32:15.804Z,12.70
2023-03-21T10:34:50.682Z,12.90
2023-03-21T10:37:17.809Z,12.90
2023-03-21T10:39:51.479Z,12.90
2023-03-21T10:42:33.749Z,12.90
2023-03-21T10:45:00.765Z,12.90
2023-03-21T10:47:31.941Z,12.90
2023-03-21T10:50:08.138Z,13.00
2023-03-21T10:52:42.739Z,13.10
2023-03-21T10:55:24.432Z,13.10
2023-03-21T10:58:04.086Z,13.20
2023-03-21T11:00:41.395Z,13.40
2023-03-21T11:03:23.088Z,13.60
2023-03-21T11:05:55.801Z,13.70
2023-03-21T11:08:22.546Z,14.00
2023-03-21T11:11:03.017Z,14.20
2023-03-21T11:14:00.554Z,14.40
2023-03-21T11:16:42.634Z,14.50
2023-03-21T11:19:18.410Z,14.60
2023-03-21T11:21:45.879Z,14.50
2023-03-21T11:24:19.760Z,14.40
2023-03-21T11:26:48.156Z,14.60
2023-03-21T11:29:31.336Z,14.90
2023-03-21T11:32:11.805Z,15.20
2023-03-21T11:34:54.989Z,15.50
2023-03-21T11:37:46.341Z,15.70
2023-03-21T11:40:24.582Z,15.70
2023-03-21T11:42:58.776Z,15.70
2023-03-21T11:45:27.426Z,15.70
2023-03-21T11:47:59.911Z,16.00
2023-03-21T11:50:29.628Z,16.20
2023-03-21T11:53:18.158Z,16.30
2023-03-21T11:55:59.974Z,16.50
2023-03-21T11:58:40.210Z,16.50
2023-03-21T12:01:33.050Z,16.50
2023-03-21T12:04:20.687Z,16.50
2023-03-21T12:06:56.163Z,16.40
2023-03-21T12:09:46.343Z,16.60
2023-03-21T12:12:22.216Z,16.50
2023-03-21T12:15:22.202Z,16.60
2023-03-21T12:18:21.227Z,16.50
2023-03-21T12:20:53.678Z,16.40
2023-03-21T12:23:38.449Z,16.30
2023-03-21T12:26:23.279Z,16.10
2023-03-21T12:29:15.113Z,15.80
2023-03-21T12:32:13.698Z,15.70
2023-03-21T12:35:17.337Z,15.60
2023-03-21T12:38:11.413Z,15.60
2023-03-21T12:41:11.641Z,15.80
2023-03-21T12:43:46.700Z,15.90
2023-03-21T12:46:39.038Z,16.00
2023-03-21T12:49:28.610Z,16.00
2023-03-21T12:52:09.324Z,15.90
2023-03-21T12:54:39.385Z,16.00
2023-03-21T12:57:21.532Z,16.10
2023-03-21T12:59:56.236Z,16.10
2023-03-21T13:02:26.315Z,16.20
2023-03-21T13:05:16.812Z,16.30
2023-03-21T13:07:49.453Z,16.20
2023-03-21T13:10:20.861Z,16.10
2023-03-21T13:13:01.696Z,16.00
2023-03-21T13:15:44.264Z,15.90
2023-03-21T13:18:26.234Z,15.90
2023-03-21T13:20:58.308Z,15.70
2023-03-21T13:23:33.019Z,15.80
2023-03-21T13:25:59.923Z,15.80
2023-03-21T13:28:29.678Z,15.80
2023-03-21T13:31:19.887Z,15.80
2023-03-21T13:33:51.647Z,15.60
2023-03-21T13:36:28.270Z,15.60
2023-03-21T13:39:01.267Z,15.50
2023-03-21T13:41:47.139Z,15.60
2023-03-21T13:44:31.981Z,15.50
2023-03-21T13:47:24.928Z,15.30
2023-03-21T13:50:22.458Z,15.30
2023-03-21T13:53:10.748Z,15.30
2023-03-21T13:55:46.645Z,15.20
2023-03-21T13:58:51.140Z,15.20
2023-03-21T14:01:35.370Z,15.10
2023-03-21T14:04:18.666Z,15.10
2023-03-21T14:06:50.869Z,15.10
2023-03-21T14:09:27.310Z,15.10
2023-03-21T14:12:03.836Z,15.00
2023-03-21T14:14:44.437Z,15.00
2023-03-21T14:17:21.859Z,15.00
2023-03-21T14:20:10.731Z,15.00
2023-03-21T14:22:41.373Z,15.00
2023-03-21T14:25:15.361Z,15.00
2023-03-21T14:27:49.735Z,14.90
2023-03-21T14:30:27.326Z,14.90
2023-03-21T14:32:58.750Z,14.80
2023-03-21T14:35:28.990Z,14.80
2023-03-21T14:37:56.259Z,14.70
2023-03-21T14:40:28.209Z,14.60
2023-03-21T14:42:55.708Z,14.60
2023-03-21T14:45:29.429Z,14.60
2023-03-21T14:48:04.277Z,14.60
2023-03-21T14:50:36.992Z,14.60
2023-03-21T14:53:04.047Z,14.60
2023-03-21T14:55:31.913Z,14.60
2023-03-21T14:57:58.886Z,14.70
2023-03-21T15:00:29.218Z,14.70
2023-03-21T15:03:00.771Z,14.70
2023-03-21T15:05:31.466Z,14.80
2023-03-21T15:08:02.416Z,14.70
2023-03-21T15:10:31.822Z,14.70
2023-03-21T15:13:01.323Z,14.70
2023-03-21T15:15:29.996Z,14.70
2023-03-21T15:18:04.073Z,14.60
2023-03-21T15:20:34.577Z,14.60
2023-03-21T15:23:13.007Z,14.60
2023-03-21T15:25:40.757Z,14.60
2023-03-21T15:28:07.977Z,14.60
2023-03-21T15:30:35.050Z,14.60
2023-03-21T15:33:14.176Z,14.60
2023-03-21T15:35:49.586Z,14.60
2023-03-21T15:38:33.396Z,14.60
2023-03-21T15:41:19.027Z,14.60
2023-03-21T15:43:57.067Z,14.60
2023-03-21T15:46:50.848Z,14.50
2023-03-21T15:49:36.988Z,14.50
2023-03-21T15:52:11.237Z,14.40
2023-03-21T15:54:43.574Z,14.40
2023-03-21T15:57:37.936Z,14.30
2023-03-21T16:00:27.987Z,14.30
2023-03-21T16:02:59.488Z,14.20
2023-03-21T16:05:30.772Z,14.20
2023-03-21T16:08:21.176Z,14.20
2023-03-21T16:10:49.112Z,14.20
2023-03-21T16:13:16.672Z,14.20
2023-03-21T16:15:44.035Z,14.20
2023-03-21T16:18:18.235Z,14.10
2023-03-21T16:20:49.264Z,14.10
2023-03-21T16:23:16.524Z,14.10
2023-03-21T16:25:44.291Z,14.00
2023-03-21T16:28:16.082Z,14.00
2023-03-21T16:30:45.771Z,14.00
2023-03-21T16:33:14.090Z,13.90
2023-03-21T16:35:41.367Z,13.90
2023-03-21T16:38:12.632Z,13.90
2023-03-21T16:40:43.929Z,13.80
2023-03-21T16:43:11.566Z,13.80
2023-03-21T16:45:41.255Z,13.70
2023-03-21T16:48:12.449Z,13.70
2023-03-21T16:50:46.298Z,13.70
2023-03-21T16:53:13.211Z,13.70
2023-03-21T16:55:40.395Z,13.70
2023-03-21T16:58:14.511Z,13.60
2023-03-21T17:00:41.445Z,13.60
2023-03-21T17:03:19.019Z,13.60
2023-03-21T17:05:46.458Z,13.60
2023-03-21T17:08:18.752Z,13.50
2023-03-21T17:10:46.512Z,13.50
2023-03-21T17:13:13.474Z,13.50
2023-03-21T17:15:42.851Z,13.40
2023-03-21T17:18:11.462Z,13.40
2023-03-21T17:20:40.310Z,13.40
2023-03-21T17:23:07.641Z,13.40
2023-03-21T17:25:34.936Z,13.40
2023-03-21T17:28:01.980Z,13.40
2023-03-21T17:30:35.542Z,13.30
2023-03-21T17:33:03.038Z,13.30
2023-03-21T17:35:30.468Z,13.30
2023-03-21T17:37:58.613Z,13.30
2023-03-21T17:40:28.775Z,13.20
2023-03-21T17:42:56.476Z,13.20
2023-03-21T17:45:28.443Z,13.10
2023-03-21T17:47:55.484Z,13.20
2023-03-21T17:50:34.124Z,13.20
2023-03-21T17:53:01.255Z,13.10
2023-03-21T17:55:28.176Z,13.10
2023-03-21T17:57:54.889Z,13.10
2023-03-21T18:00:24.065Z,13.00
2023-03-21T18:02:51.363Z,13.00
2023-03-21T18:05:19.062Z,13.00
2023-03-21T18:10:38.648Z,13.00
2023-03-21T18:13:05.614Z,13.00
2023-03-21T18:15:32.804Z,13.00
2023-03-21T18:18:02.817Z,13.00
2023-03-21T18:20:50.806Z,13.00
2023-03-21T18:23:19.353Z,12.90
2023-03-21T18:25:47.060Z,13.00
2023-03-21T18:28:17.536Z,12.90
2023-03-21T18:31:04.769Z,12.90
2023-03-21T18:33:34.273Z,12.80
2023-03-21T18:36:07.611Z,12.80
2023-03-21T18:38:35.529Z,12.70
2023-03-21T18:41:02.508Z,12.70
2023-03-21T18:46:19.112Z,12.70
2023-03-21T18:48:46.557Z,12.70
2023-03-21T18:51:13.861Z,12.70
2023-03-21T18:53:40.915Z,12.60
2023-03-21T18:56:10.661Z,12.60
2023-03-21T18:58:38.620Z,12.50
2023-03-21T19:01:05.574Z,12.50
2023-03-21T19:03:37.501Z,12.40
2023-03-21T19:06:06.559Z,12.40
2023-03-21T19:08:41.753Z,12.30
2023-03-21T19:11:10.187Z,12.30
2023-03-21T19:13:37.253Z,12.30
2023-03-21T19:16:04.558Z,12.30
2023-03-21T19:18:54.088Z,12.20
2023-03-21T19:21:20.084Z,12.20
2023-03-21T19:26:34.307Z,12.20
2023-03-21T19:29:01.645Z,12.10
2023-03-21T19:31:28.595Z,12.20
2023-03-21T19:33:58.211Z,12.30
2023-03-21T19:36:26.335Z,12.30
2023-03-21T19:38:53.905Z,12.40
2023-03-21T19:41:23.747Z,12.40
2023-03-21T19:43:55.020Z,12.50
2023-03-21T19:46:25.497Z,12.50
2023-03-21T19:48:56.512Z,12.60
2023-03-21T19:51:29.677Z,12.70
2023-03-21T19:54:00.808Z,12.70
2023-03-21T19:56:28.059Z,12.70
2023-03-21T19:58:56.205Z,12.70
2023-03-21T20:01:24.280Z,12.70
2023-03-21T20:03:52.514Z,12.60
2023-03-21T20:06:22.314Z,12.60
2023-03-21T20:11:39.342Z,12.50
2023-03-21T20:14:06.453Z,12.50
2023-03-21T20:16:35.489Z,12.50
2023-03-21T20:19:09.039Z,12.50
2023-03-21T20:21:48.242Z,12.40
2023-03-21T20:24:17.785Z,12.40
2023-03-21T20:26:49.364Z,12.40
2023-03-21T20:30:06.974Z,12.40
2023-03-21T20:32:06.250Z,12.40
2023-03-21T20:34:33.726Z,12.30
2023-03-21T20:37:01.045Z,12.30
2023-03-21T20:39:29.869Z,12.20
2023-03-21T20:41:58.969Z,12.20
2023-03-21T20:44:57.292Z,12.20
2023-03-21T20:47:14.542Z,12.10
2023-03-21T20:49:41.418Z,12.00
2023-03-21T20:54:59.877Z,11.90
2023-03-21T20:57:30.363Z,11.90
2023-03-21T20:59:57.512Z,11.90
2023-03-21T21:02:25.133Z,11.80
2023-03-21T21:05:23.738Z,11.90
2023-03-21T21:07:42.635Z,11.90
2023-03-21T21:10:11.107Z,11.90
2023-03-21T21:12:39.550Z,11.80
2023-03-21T21:15:08.315Z,11.90
2023-03-21T21:20:22.934Z,11.80
2023-03-21T21:23:00.554Z,11.80
2023-03-21T21:25:29.236Z,11.80
2023-03-21T21:27:58.080Z,11.80
2023-03-21T21:30:29.263Z,11.80
2023-03-21T21:32:59.430Z,11.80
2023-03-21T21:35:26.659Z,11.80
2023-03-21T21:37:56.184Z,11.70
2023-03-21T21:40:23.356Z,11.70
2023-03-21T21:42:50.218Z,11.60
2023-03-21T21:45:18.236Z,11.50
2023-03-21T21:47:46.268Z,11.40
2023-03-21T21:50:16.325Z,11.30
2023-03-21T21:52:52.568Z,11.10
2023-03-21T21:55:19.644Z,11.00
2023-03-21T21:57:50.178Z,10.90
2023-03-21T22:00:19.425Z,10.80
2023-03-21T22:02:46.823Z,10.80
2023-03-21T22:05:13.501Z,10.70
2023-03-21T22:07:40.241Z,10.60
2023-03-21T22:10:08.025Z,10.60
2023-03-21T22:12:34.840Z,10.50
2023-03-21T22:15:07.458Z,10.50
2023-03-21T22:17:35.192Z,10.40
2023-03-21T22:20:06.376Z,10.40
2023-03-21T22:22:34.335Z,10.40
2023-03-21T22:25:01.046Z,10.40
2023-03-21T22:27:27.707Z,10.40
2023-03-21T22:29:54.433Z,10.30
2023-03-21T22:32:21.628Z,10.30
2023-03-21T22:34:48.696Z,10.30
2023-03-21T22:37:15.328Z,10.20
2023-03-21T22:39:42.076Z,10.30
2023-03-21T22:42:08.734Z,10.30
2023-03-21T22:44:35.603Z,10.40
2023-03-21T22:47:04.790Z,10.50
2023-03-21T22:49:34.517Z,10.70
2023-03-21T22:52:03.157Z,10.80
2023-03-21T22:54:30.699Z,11.00
2023-03-21T22:56:57.384Z,11.10
2023-03-21T22:59:24.982Z,11.10
2023-03-21T23:01:52.100Z,11.20
2023-03-21T23:04:19.470Z,11.30
2023-03-21T23:06:46.376Z,11.30
2023-03-21T23:09:13.453Z,11.30
2023-03-21T23:11:40.480Z,11.20
2023-03-21T23:14:08.886Z,11.10
2023-03-21T23:16:38.033Z,10.90
2023-03-21T23:19:08.237Z,10.80
2023-03-21T23:21:36.403Z,10.60
2023-03-21T23:24:03.062Z,10.60
2023-03-21T23:26:29.897Z,10.50
2023-03-21T23:28:57.090Z,10.50
2023-03-21T23:31:26.013Z,10.40
2023-03-21T23:33:53.394Z,10.40
2023-03-21T23:36:21.127Z,10.50
2023-03-21T23:38:47.918Z,10.50
2023-03-21T23:41:17.456Z,10.50
2023-03-21T23:43:46.827Z,10.50
2023-03-21T23:46:15.595Z,10.50
2023-03-21T23:48:43.344Z,10.50
2023-03-21T23:51:11.839Z,10.50
2023-03-21T23:53:39.344Z,10.50
2023-03-21T23:56:18.877Z,10.40
2023-03-21T23:58:46.316Z,10.40
